sensor_id;sensor_type;location;lat;lon;timestamp;pressure;altitude;pressure_sealevel;temperature;humidity
63654;BME280;49809;47.418;19.080;2023-03-18T00:01:03;100988.28;;;0.07;72.71
63654;BME280;49809;47.418;19.080;2023-03-18T00:04:44;100980.31;;;0.16;71.62
63654;BME280;49809;47.418;19.080;2023-03-18T00:08:35;100975.22;;;0.31;70.04
63654;BME280;49809;47.418;19.080;2023-03-18T00:12:14;100977.78;;;0.39;69.11
63654;BME280;49809;47.418;19.080;2023-03-18T00:15:50;100975.00;;;0.40;68.78
63654;BME280;49809;47.418;19.080;2023-03-18T00:19:14;100965.87;;;0.44;68.45
63654;BME280;49809;47.418;19.080;2023-03-18T00:22:51;100970.38;;;0.59;67.46
63654;BME280;49809;47.418;19.080;2023-03-18T00:26:33;100962.13;;;0.47;68.15
63654;BME280;49809;47.418;19.080;2023-03-18T00:30:20;100956.41;;;0.52;67.83
63654;BME280;49809;47.418;19.080;2023-03-18T00:33:57;100955.03;;;0.64;66.70
63654;BME280;49809;47.418;19.080;2023-03-18T00:37:24;100957.94;;;0.69;66.51
63654;BME280;49809;47.418;19.080;2023-03-18T00:41:25;100952.06;;;0.75;66.37
63654;BME280;49809;47.418;19.080;2023-03-18T00:45:12;100958.84;;;0.84;65.06
63654;BME280;49809;47.418;19.080;2023-03-18T00:49:10;100947.59;;;0.92;65.45
63654;BME280;49809;47.418;19.080;2023-03-18T00:52:17;100951.28;;;0.97;64.57
63654;BME280;49809;47.418;19.080;2023-03-18T00:56:05;100952.44;;;0.95;64.08
63654;BME280;49809;47.418;19.080;2023-03-18T00:59:27;100955.09;;;0.86;64.67
63654;BME280;49809;47.418;19.080;2023-03-18T01:02:55;100938.47;;;0.87;64.14
63654;BME280;49809;47.418;19.080;2023-03-18T01:06:40;100944.78;;;0.93;64.28
63654;BME280;49809;47.418;19.080;2023-03-18T01:10:21;100938.66;;;0.86;64.05
63654;BME280;49809;47.418;19.080;2023-03-18T01:14:34;100931.22;;;0.75;64.37
63654;BME280;49809;47.418;19.080;2023-03-18T01:18:45;100936.19;;;0.62;65.85
63654;BME280;49809;47.418;19.080;2023-03-18T01:22:27;100937.97;;;0.61;64.91
63654;BME280;49809;47.418;19.080;2023-03-18T01:26:06;100926.91;;;0.59;64.66
63654;BME280;49809;47.418;19.080;2023-03-18T01:30:20;100929.34;;;0.61;64.99
63654;BME280;49809;47.418;19.080;2023-03-18T01:34:14;100920.63;;;0.46;65.72
63654;BME280;49809;47.418;19.080;2023-03-18T01:38:07;100921.31;;;0.39;65.15
63654;BME280;49809;47.418;19.080;2023-03-18T01:41:26;100916.66;;;0.27;66.29
63654;BME280;49809;47.418;19.080;2023-03-18T01:45:15;100911.66;;;0.17;67.28
63654;BME280;49809;47.418;19.080;2023-03-18T01:48:47;100911.03;;;0.07;68.29
63654;BME280;49809;47.418;19.080;2023-03-18T01:52:29;100914.31;;;-0.07;68.79
63654;BME280;49809;47.418;19.080;2023-03-18T01:56:14;100904.72;;;-0.07;69.29
63654;BME280;49809;47.418;19.080;2023-03-18T01:59:45;100900.81;;;-0.03;68.36
63654;BME280;49809;47.418;19.080;2023-03-18T02:03:14;100902.56;;;0.05;67.96
63654;BME280;49809;47.418;19.080;2023-03-18T02:06:50;100900.63;;;0.07;67.91
63654;BME280;49809;47.418;19.080;2023-03-18T02:13:56;100903.38;;;0.06;67.71
63654;BME280;49809;47.418;19.080;2023-03-18T02:17:30;100901.28;;;0.09;67.19
63654;BME280;49809;47.418;19.080;2023-03-18T02:25:30;100901.22;;;0.17;66.92
63654;BME280;49809;47.418;19.080;2023-03-18T02:29:06;100902.03;;;0.18;66.67
63654;BME280;49809;47.418;19.080;2023-03-18T02:33:13;100901.22;;;0.17;66.56
63654;BME280;49809;47.418;19.080;2023-03-18T02:36:51;100902.19;;;0.16;66.96
63654;BME280;49809;47.418;19.080;2023-03-18T02:40:29;100903.62;;;0.27;65.12
63654;BME280;49809;47.418;19.080;2023-03-18T02:43:57;100898.13;;;0.22;65.44
63654;BME280;49809;47.418;19.080;2023-03-18T02:47:43;100902.84;;;0.18;65.95
63654;BME280;49809;47.418;19.080;2023-03-18T02:51:04;100911.84;;;0.08;66.02
63654;BME280;49809;47.418;19.080;2023-03-18T02:54:48;100900.66;;;-0.01;66.80
63654;BME280;49809;47.418;19.080;2023-03-18T02:58:36;100906.56;;;-0.15;68.28
63654;BME280;49809;47.418;19.080;2023-03-18T03:01:55;100912.25;;;-0.28;69.11
63654;BME280;49809;47.418;19.080;2023-03-18T03:05:33;100906.59;;;-0.39;69.88
63654;BME280;49809;47.418;19.080;2023-03-18T03:09:04;100906.94;;;-0.51;70.69
63654;BME280;49809;47.418;19.080;2023-03-18T03:12:50;100899.78;;;-0.65;71.45
63654;BME280;49809;47.418;19.080;2023-03-18T03:16:35;100893.94;;;-0.75;72.07
63654;BME280;49809;47.418;19.080;2023-03-18T03:20:05;100900.94;;;-0.83;72.40
63654;BME280;49809;47.418;19.080;2023-03-18T03:23:27;100908.25;;;-0.95;73.04
63654;BME280;49809;47.418;19.080;2023-03-18T03:27:13;100906.59;;;-1.04;73.76
63654;BME280;49809;47.418;19.080;2023-03-18T03:30:38;100907.91;;;-1.08;72.87
63654;BME280;49809;47.418;19.080;2023-03-18T03:34:14;100913.44;;;-1.03;73.21
63654;BME280;49809;47.418;19.080;2023-03-18T03:37:46;100909.53;;;-1.07;73.25
63654;BME280;49809;47.418;19.080;2023-03-18T03:41:28;100915.69;;;-1.08;72.82
63654;BME280;49809;47.418;19.080;2023-03-18T03:45:07;100917.00;;;-1.04;72.99
63654;BME280;49809;47.418;19.080;2023-03-18T03:48:27;100913.44;;;-0.71;70.54
63654;BME280;49809;47.418;19.080;2023-03-18T03:51:50;100919.59;;;-0.72;70.70
63654;BME280;49809;47.418;19.080;2023-03-18T03:55:44;100915.72;;;-0.68;70.54
63654;BME280;49809;47.418;19.080;2023-03-18T03:59:04;100918.47;;;-0.53;70.59
63654;BME280;49809;47.418;19.080;2023-03-18T04:02:42;100920.25;;;-0.46;69.87
63654;BME280;49809;47.418;19.080;2023-03-18T04:10:19;100918.28;;;-0.44;69.64
63654;BME280;49809;47.418;19.080;2023-03-18T04:13:49;100926.41;;;-0.38;69.69
63654;BME280;49809;47.418;19.080;2023-03-18T04:17:26;100921.37;;;-0.48;69.75
63654;BME280;49809;47.418;19.080;2023-03-18T04:20:50;100926.44;;;-0.55;70.11
63654;BME280;49809;47.418;19.080;2023-03-18T04:24:43;100927.09;;;-0.61;70.12
63654;BME280;49809;47.418;19.080;2023-03-18T04:28:13;100928.06;;;-0.70;71.35
63654;BME280;49809;47.418;19.080;2023-03-18T04:32:17;100932.94;;;-0.75;71.31
63654;BME280;49809;47.418;19.080;2023-03-18T04:35:54;100934.88;;;-0.85;72.14
63654;BME280;49809;47.418;19.080;2023-03-18T04:39:40;100933.59;;;-0.81;72.27
63654;BME280;49809;47.418;19.080;2023-03-18T04:43:25;100940.06;;;-0.77;72.77
63654;BME280;49809;47.418;19.080;2023-03-18T04:46:43;100942.37;;;-0.74;72.63
63654;BME280;49809;47.418;19.080;2023-03-18T04:50:20;100944.63;;;-0.71;72.04
63654;BME280;49809;47.418;19.080;2023-03-18T04:57:37;100951.94;;;-0.74;71.64
63654;BME280;49809;47.418;19.080;2023-03-18T05:01:14;100951.16;;;-0.59;72.01
63654;BME280;49809;47.418;19.080;2023-03-18T05:04:49;100957.81;;;-0.64;72.19
63654;BME280;49809;47.418;19.080;2023-03-18T05:08:24;100955.50;;;-0.67;72.89
63654;BME280;49809;47.418;19.080;2023-03-18T05:12:00;100967.06;;;-0.62;72.78
63654;BME280;49809;47.418;19.080;2023-03-18T05:15:38;100950.81;;;-0.48;72.16
63654;BME280;49809;47.418;19.080;2023-03-18T05:19:17;100965.13;;;-0.35;71.75
63654;BME280;49809;47.418;19.080;2023-03-18T05:22:45;100970.94;;;-0.17;71.17
63654;BME280;49809;47.418;19.080;2023-03-18T05:26:38;100972.22;;;-0.13;71.23
63654;BME280;49809;47.418;19.080;2023-03-18T05:30:25;100971.22;;;-0.04;70.99
63654;BME280;49809;47.418;19.080;2023-03-18T05:45:57;100982.50;;;0.43;70.26
63654;BME280;49809;47.418;19.080;2023-03-18T05:49:45;100981.81;;;0.58;69.84
63654;BME280;49809;47.418;19.080;2023-03-18T05:53:29;100986.09;;;0.81;68.48
63654;BME280;49809;47.418;19.080;2023-03-18T05:57:20;100987.09;;;1.03;66.80
63654;BME280;49809;47.418;19.080;2023-03-18T06:09:34;100985.13;;;1.51;65.62
63654;BME280;49809;47.418;19.080;2023-03-18T06:13:15;100998.50;;;1.70;64.39
63654;BME280;49809;47.418;19.080;2023-03-18T06:16:53;100998.88;;;1.82;64.18
63654;BME280;49809;47.418;19.080;2023-03-18T06:20:35;100998.75;;;1.98;63.94
63654;BME280;49809;47.418;19.080;2023-03-18T06:24:31;100990.81;;;2.06;63.75
63654;BME280;49809;47.418;19.080;2023-03-18T06:36:59;101006.69;;;2.49;61.86
63654;BME280;49809;47.418;19.080;2023-03-18T06:41:09;101006.75;;;2.70;61.58
63654;BME280;49809;47.418;19.080;2023-03-18T06:48:53;101012.47;;;3.31;61.21
63654;BME280;49809;47.418;19.080;2023-03-18T06:53:18;101016.81;;;3.66;59.53
63654;BME280;49809;47.418;19.080;2023-03-18T07:01:28;101028.84;;;4.10;58.90
63654;BME280;49809;47.418;19.080;2023-03-18T07:05:43;101027.72;;;4.53;57.61
63654;BME280;49809;47.418;19.080;2023-03-18T07:09:40;101023.69;;;5.05;55.54
63654;BME280;49809;47.418;19.080;2023-03-18T07:13:31;101031.25;;;5.54;53.68
63654;BME280;49809;47.418;19.080;2023-03-18T07:17:40;101021.22;;;6.03;52.99
63654;BME280;49809;47.418;19.080;2023-03-18T07:21:28;101017.66;;;6.55;50.80
63654;BME280;49809;47.418;19.080;2023-03-18T07:25:21;101021.19;;;6.87;49.99
63654;BME280;49809;47.418;19.080;2023-03-18T07:28:58;101008.38;;;7.35;48.10
63654;BME280;49809;47.418;19.080;2023-03-18T07:32:28;101015.72;;;7.83;47.19
63654;BME280;49809;47.418;19.080;2023-03-18T07:36:07;101021.41;;;8.29;46.94
63654;BME280;49809;47.418;19.080;2023-03-18T07:39:53;101016.97;;;8.23;45.31
63654;BME280;49809;47.418;19.080;2023-03-18T07:43:20;101029.47;;;8.35;46.08
63654;BME280;49809;47.418;19.080;2023-03-18T07:47:05;101028.75;;;8.64;45.49
63654;BME280;49809;47.418;19.080;2023-03-18T07:50:35;101029.84;;;8.75;44.42
63654;BME280;49809;47.418;19.080;2023-03-18T07:54:23;101032.09;;;9.07;44.02
63654;BME280;49809;47.418;19.080;2023-03-18T07:57:48;101035.22;;;9.46;43.62
63654;BME280;49809;47.418;19.080;2023-03-18T08:01:25;101036.94;;;9.52;42.99
63654;BME280;49809;47.418;19.080;2023-03-18T08:05:09;101029.53;;;9.72;42.38
63654;BME280;49809;47.418;19.080;2023-03-18T08:09:04;101035.41;;;9.97;42.09
63654;BME280;49809;47.418;19.080;2023-03-18T08:12:33;101025.78;;;10.38;41.28
63654;BME280;49809;47.418;19.080;2023-03-18T08:16:11;101036.34;;;10.50;40.65
63654;BME280;49809;47.418;19.080;2023-03-18T08:20:18;101027.94;;;10.64;40.02
63654;BME280;49809;47.418;19.080;2023-03-18T08:24:28;101024.72;;;10.90;39.53
63654;BME280;49809;47.418;19.080;2023-03-18T08:28:15;101022.25;;;10.72;40.03
63654;BME280;49809;47.418;19.080;2023-03-18T08:31:50;101021.41;;;10.55;40.47
63654;BME280;49809;47.418;19.080;2023-03-18T08:35:26;101023.03;;;10.84;40.01
63654;BME280;49809;47.418;19.080;2023-03-18T08:39:48;101017.44;;;10.69;40.13
63654;BME280;49809;47.418;19.080;2023-03-18T08:42:53;101019.81;;;10.31;40.55
63654;BME280;49809;47.418;19.080;2023-03-18T08:45:57;101013.63;;;10.65;39.48
63654;BME280;49809;47.418;19.080;2023-03-18T08:49:03;101007.56;;;10.53;41.01
63654;BME280;49809;47.418;19.080;2023-03-18T08:52:30;101014.03;;;10.85;39.46
63654;BME280;49809;47.418;19.080;2023-03-18T08:55:35;101007.75;;;11.31;39.06
63654;BME280;49809;47.418;19.080;2023-03-18T08:58:39;101005.59;;;11.45;38.29
63654;BME280;49809;47.418;19.080;2023-03-18T09:01:42;101008.34;;;11.50;37.71
63654;BME280;49809;47.418;19.080;2023-03-18T09:04:45;101001.47;;;11.83;37.23
63654;BME280;49809;47.418;19.080;2023-03-18T09:07:50;101000.97;;;12.62;36.75
63654;BME280;49809;47.418;19.080;2023-03-18T09:10:55;101002.97;;;12.99;34.67
63654;BME280;49809;47.418;19.080;2023-03-18T09:14:01;101004.53;;;13.17;34.81
63654;BME280;49809;47.418;19.080;2023-03-18T09:17:05;101002.72;;;13.86;33.63
63654;BME280;49809;47.418;19.080;2023-03-18T09:20:10;100987.81;;;13.85;33.66
63654;BME280;49809;47.418;19.080;2023-03-18T09:27:22;100980.88;;;14.88;31.95
63654;BME280;49809;47.418;19.080;2023-03-18T09:30:59;100979.78;;;14.74;31.03
63654;BME280;49809;47.418;19.080;2023-03-18T09:43:18;100972.13;;;15.89;30.40
63654;BME280;49809;47.418;19.080;2023-03-18T09:47:39;100979.00;;;16.25;29.22
63654;BME280;49809;47.418;19.080;2023-03-18T09:58:17;100969.66;;;16.23;29.14
63654;BME280;49809;47.418;19.080;2023-03-18T10:01:24;100961.66;;;16.13;29.36
63654;BME280;49809;47.418;19.080;2023-03-18T10:09:12;100964.91;;;15.99;29.93
63654;BME280;49809;47.418;19.080;2023-03-18T10:12:47;100963.09;;;15.34;29.73
63654;BME280;49809;47.418;19.080;2023-03-18T10:15:54;100949.47;;;15.41;29.33
63654;BME280;49809;47.418;19.080;2023-03-18T10:23:53;100953.75;;;15.87;29.20
63654;BME280;49809;47.418;19.080;2023-03-18T10:34:22;100937.47;;;16.63;29.00
63654;BME280;49809;47.418;19.080;2023-03-18T10:38:07;100944.25;;;16.35;29.55
63654;BME280;49809;47.418;19.080;2023-03-18T10:41:53;100941.78;;;16.49;28.82
63654;BME280;49809;47.418;19.080;2023-03-18T10:45:08;100941.31;;;16.32;29.79
63654;BME280;49809;47.418;19.080;2023-03-18T10:48:34;100938.75;;;17.10;29.43
63654;BME280;49809;47.418;19.080;2023-03-18T10:57:13;100941.47;;;16.56;29.17
63654;BME280;49809;47.418;19.080;2023-03-18T11:00:27;100932.06;;;17.12;29.09
63654;BME280;49809;47.418;19.080;2023-03-18T11:07:00;100917.00;;;16.87;29.50
63654;BME280;49809;47.418;19.080;2023-03-18T11:10:24;100912.72;;;16.86;30.10
63654;BME280;49809;47.418;19.080;2023-03-18T11:13:54;100921.72;;;17.01;29.94
63654;BME280;49809;47.418;19.080;2023-03-18T11:17:47;100915.31;;;16.97;30.06
63654;BME280;49809;47.418;19.080;2023-03-18T11:21:00;100897.16;;;16.93;29.45
63654;BME280;49809;47.418;19.080;2023-03-18T11:24:23;100898.03;;;16.35;30.98
63654;BME280;49809;47.418;19.080;2023-03-18T11:28:21;100895.63;;;16.82;30.34
63654;BME280;49809;47.418;19.080;2023-03-18T11:31:24;100890.22;;;17.55;29.24
63654;BME280;49809;47.418;19.080;2023-03-18T11:34:33;100882.19;;;17.26;28.56
63654;BME280;49809;47.418;19.080;2023-03-18T11:37:40;100876.41;;;17.43;29.11
63654;BME280;49809;47.418;19.080;2023-03-18T11:40:42;100870.75;;;17.97;28.44
63654;BME280;49809;47.418;19.080;2023-03-18T11:50:45;100862.66;;;17.55;29.37
63654;BME280;49809;47.418;19.080;2023-03-18T11:54:37;100868.19;;;17.34;28.31
63654;BME280;49809;47.418;19.080;2023-03-18T11:58:08;100868.91;;;17.16;28.76
63654;BME280;49809;47.418;19.080;2023-03-18T12:01:29;100866.78;;;17.13;30.08
63654;BME280;49809;47.418;19.080;2023-03-18T12:08:15;100858.59;;;16.12;29.93
63654;BME280;49809;47.418;19.080;2023-03-18T12:11:55;100857.13;;;15.75;30.48
63654;BME280;49809;47.418;19.080;2023-03-18T12:16:04;100854.47;;;15.45;31.50
63654;BME280;49809;47.418;19.080;2023-03-18T12:43:55;100834.28;;;14.93;34.11
63654;BME280;49809;47.418;19.080;2023-03-18T12:47:21;100827.06;;;14.89;34.62
63654;BME280;49809;47.418;19.080;2023-03-18T12:50:53;100828.94;;;14.68;34.39
63654;BME280;49809;47.418;19.080;2023-03-18T12:54:08;100838.53;;;14.79;34.38
63654;BME280;49809;47.418;19.080;2023-03-18T12:57:44;100823.84;;;14.76;33.73
63654;BME280;49809;47.418;19.080;2023-03-18T13:01:04;100817.75;;;14.66;33.77
63654;BME280;49809;47.418;19.080;2023-03-18T13:04:39;100818.25;;;14.68;34.22
63654;BME280;49809;47.418;19.080;2023-03-18T13:18:24;100814.72;;;14.27;34.59
63654;BME280;49809;47.418;19.080;2023-03-18T13:21:35;100825.56;;;14.10;34.20
63654;BME280;49809;47.418;19.080;2023-03-18T13:25:43;100817.06;;;14.08;34.60
63654;BME280;49809;47.418;19.080;2023-03-18T13:45:53;100812.00;;;14.12;35.56
63654;BME280;49809;47.418;19.080;2023-03-18T13:49:16;100808.66;;;14.42;34.11
63654;BME280;49809;47.418;19.080;2023-03-18T13:52:41;100812.12;;;14.62;33.58
63654;BME280;49809;47.418;19.080;2023-03-18T13:55:52;100791.09;;;14.76;34.13
63654;BME280;49809;47.418;19.080;2023-03-18T13:59:13;100796.41;;;15.06;33.35
63654;BME280;49809;47.418;19.080;2023-03-18T14:11:45;100780.16;;;14.93;32.91
63654;BME280;49809;47.418;19.080;2023-03-18T14:17:56;100767.12;;;14.86;33.56
63654;BME280;49809;47.418;19.080;2023-03-18T14:21:04;100767.91;;;14.76;33.64
63654;BME280;49809;47.418;19.080;2023-03-18T14:24:21;100772.44;;;14.66;34.42
63654;BME280;49809;47.418;19.080;2023-03-18T14:27:24;100772.44;;;14.51;34.39
63654;BME280;49809;47.418;19.080;2023-03-18T14:33:43;100756.47;;;14.56;33.37
63654;BME280;49809;47.418;19.080;2023-03-18T14:40:05;100754.56;;;14.82;34.94
63654;BME280;49809;47.418;19.080;2023-03-18T14:43:36;100756.13;;;15.23;34.16
63654;BME280;49809;47.418;19.080;2023-03-18T14:46:44;100742.53;;;15.19;33.54
63654;BME280;49809;47.418;19.080;2023-03-18T14:49:58;100755.06;;;15.19;33.55
63654;BME280;49809;47.418;19.080;2023-03-18T14:56:23;100748.16;;;15.08;34.76
63654;BME280;49809;47.418;19.080;2023-03-18T14:59:27;100747.00;;;15.39;34.50
63654;BME280;49809;47.418;19.080;2023-03-18T15:02:35;100740.31;;;15.42;34.39
63654;BME280;49809;47.418;19.080;2023-03-18T15:05:40;100739.28;;;15.38;35.07
63654;BME280;49809;47.418;19.080;2023-03-18T15:09:05;100741.75;;;15.14;35.57
63654;BME280;49809;47.418;19.080;2023-03-18T15:12:24;100747.38;;;14.97;35.81
63654;BME280;49809;47.418;19.080;2023-03-18T15:15:28;100744.19;;;14.70;36.23
63654;BME280;49809;47.418;19.080;2023-03-18T15:18:34;100744.75;;;14.47;36.70
63654;BME280;49809;47.418;19.080;2023-03-18T15:21:39;100741.47;;;14.14;37.35
63654;BME280;49809;47.418;19.080;2023-03-18T15:24:46;100746.19;;;13.87;37.98
63654;BME280;49809;47.418;19.080;2023-03-18T15:27:55;100745.66;;;13.90;38.16
63654;BME280;49809;47.418;19.080;2023-03-18T15:30:59;100736.88;;;13.84;38.46
63654;BME280;49809;47.418;19.080;2023-03-18T15:40:51;100736.66;;;14.01;38.57
63654;BME280;49809;47.418;19.080;2023-03-18T15:43:56;100742.44;;;13.73;38.88
63654;BME280;49809;47.418;19.080;2023-03-18T15:47:29;100746.94;;;13.72;38.57
63654;BME280;49809;47.418;19.080;2023-03-18T15:50:51;100743.72;;;13.65;39.54
63654;BME280;49809;47.418;19.080;2023-03-18T15:54:04;100751.41;;;13.57;39.95
63654;BME280;49809;47.418;19.080;2023-03-18T15:57:11;100754.28;;;13.45;39.73
63654;BME280;49809;47.418;19.080;2023-03-18T16:00:17;100749.13;;;13.28;40.36
63654;BME280;49809;47.418;19.080;2023-03-18T16:03:23;100754.12;;;13.15;41.23
63654;BME280;49809;47.418;19.080;2023-03-18T16:06:30;100763.56;;;13.00;40.93
63654;BME280;49809;47.418;19.080;2023-03-18T16:09:40;100766.22;;;12.69;41.66
63654;BME280;49809;47.418;19.080;2023-03-18T16:12:45;100769.22;;;12.45;42.37
63654;BME280;49809;47.418;19.080;2023-03-18T16:15:49;100777.47;;;12.44;41.91
63654;BME280;49809;47.418;19.080;2023-03-18T16:18:53;100778.16;;;12.34;42.48
63654;BME280;49809;47.418;19.080;2023-03-18T16:21:59;100779.97;;;12.07;43.68
63654;BME280;49809;47.418;19.080;2023-03-18T16:25:05;100777.38;;;12.12;43.33
63654;BME280;49809;47.418;19.080;2023-03-18T16:28:19;100778.59;;;11.99;44.01
63654;BME280;49809;47.418;19.080;2023-03-18T16:31:23;100782.66;;;11.85;44.16
63654;BME280;49809;47.418;19.080;2023-03-18T16:34:29;100781.75;;;11.74;44.07
63654;BME280;49809;47.418;19.080;2023-03-18T16:37:33;100784.31;;;11.69;44.10
63654;BME280;49809;47.418;19.080;2023-03-18T16:40:42;100782.84;;;11.62;44.59
63654;BME280;49809;47.418;19.080;2023-03-18T16:43:45;100782.25;;;11.55;44.92
63654;BME280;49809;47.418;19.080;2023-03-18T16:46:55;100788.47;;;11.44;45.45
63654;BME280;49809;47.418;19.080;2023-03-18T16:49:58;100781.75;;;11.36;46.16
63654;BME280;49809;47.418;19.080;2023-03-18T16:53:28;100781.44;;;11.16;46.76
63654;BME280;49809;47.418;19.080;2023-03-18T16:56:34;100780.91;;;10.97;47.44
63654;BME280;49809;47.418;19.080;2023-03-18T16:59:50;100787.00;;;10.81;48.20
63654;BME280;49809;47.418;19.080;2023-03-18T17:03:00;100786.91;;;10.59;48.73
63654;BME280;49809;47.418;19.080;2023-03-18T17:06:04;100786.50;;;10.67;48.49
63654;BME280;49809;47.418;19.080;2023-03-18T17:09:09;100788.19;;;10.40;49.52
63654;BME280;49809;47.418;19.080;2023-03-18T17:12:15;100791.56;;;10.24;50.18
63654;BME280;49809;47.418;19.080;2023-03-18T17:15:26;100792.16;;;10.14;50.49
63654;BME280;49809;47.418;19.080;2023-03-18T17:18:33;100794.84;;;10.02;51.19
63654;BME280;49809;47.418;19.080;2023-03-18T17:21:40;100795.31;;;9.99;51.20
63654;BME280;49809;47.418;19.080;2023-03-18T17:24:50;100798.78;;;9.88;51.60
63654;BME280;49809;47.418;19.080;2023-03-18T17:27:59;100793.34;;;9.67;52.67
63654;BME280;49809;47.418;19.080;2023-03-18T17:31:07;100795.75;;;9.56;52.92
63654;BME280;49809;47.418;19.080;2023-03-18T17:34:13;100801.31;;;9.43;53.53
63654;BME280;49809;47.418;19.080;2023-03-18T17:37:17;100804.06;;;9.37;53.69
63654;BME280;49809;47.418;19.080;2023-03-18T17:40:21;100803.16;;;9.20;54.28
63654;BME280;49809;47.418;19.080;2023-03-18T17:46:29;100800.03;;;8.99;55.06
63654;BME280;49809;47.418;19.080;2023-03-18T17:49:38;100804.94;;;8.96;55.49
63654;BME280;49809;47.418;19.080;2023-03-18T17:52:43;100800.81;;;8.88;55.91
63654;BME280;49809;47.418;19.080;2023-03-18T17:55:53;100803.91;;;8.85;55.81
63654;BME280;49809;47.418;19.080;2023-03-18T17:58:56;100814.78;;;8.65;56.86
63654;BME280;49809;47.418;19.080;2023-03-18T18:02:00;100814.59;;;8.49;57.79
63654;BME280;49809;47.418;19.080;2023-03-18T18:05:04;100814.47;;;8.44;57.97
63654;BME280;49809;47.418;19.080;2023-03-18T18:08:15;100811.56;;;8.34;58.72
63654;BME280;49809;47.418;19.080;2023-03-18T18:11:27;100821.81;;;8.42;58.04
63654;BME280;49809;47.418;19.080;2023-03-18T18:14:46;100819.19;;;8.42;58.11
63654;BME280;49809;47.418;19.080;2023-03-18T18:17:52;100820.06;;;8.36;58.68
63654;BME280;49809;47.418;19.080;2023-03-18T18:21:01;100810.31;;;8.36;58.52
63654;BME280;49809;47.418;19.080;2023-03-18T18:24:34;100821.00;;;8.23;59.22
63654;BME280;49809;47.418;19.080;2023-03-18T18:27:36;100818.38;;;8.23;59.10
63654;BME280;49809;47.418;19.080;2023-03-18T18:30:42;100823.09;;;8.03;59.89
63654;BME280;49809;47.418;19.080;2023-03-18T18:33:46;100824.34;;;8.00;60.18
63654;BME280;49809;47.418;19.080;2023-03-18T18:36:54;100822.44;;;7.89;60.71
63654;BME280;49809;47.418;19.080;2023-03-18T18:39:59;100821.34;;;7.78;61.52
63654;BME280;49809;47.418;19.080;2023-03-18T18:43:03;100823.59;;;7.75;61.99
63654;BME280;49809;47.418;19.080;2023-03-18T18:46:10;100828.88;;;7.57;62.22
63654;BME280;49809;47.418;19.080;2023-03-18T18:49:43;100831.97;;;7.54;62.24
63654;BME280;49809;47.418;19.080;2023-03-18T18:52:52;100831.81;;;7.49;62.35
63654;BME280;49809;47.418;19.080;2023-03-18T18:55:59;100830.53;;;7.33;63.36
63654;BME280;49809;47.418;19.080;2023-03-18T18:59:26;100828.03;;;7.20;63.54
63654;BME280;49809;47.418;19.080;2023-03-18T19:02:36;100828.75;;;7.02;64.48
63654;BME280;49809;47.418;19.080;2023-03-18T19:05:46;100831.88;;;6.92;64.94
63654;BME280;49809;47.418;19.080;2023-03-18T19:08:53;100835.12;;;6.88;65.25
63654;BME280;49809;47.418;19.080;2023-03-18T19:11:56;100835.75;;;6.90;65.37
63654;BME280;49809;47.418;19.080;2023-03-18T19:15:04;100832.94;;;6.85;65.64
63654;BME280;49809;47.418;19.080;2023-03-18T19:18:16;100840.34;;;6.70;66.27
63654;BME280;49809;47.418;19.080;2023-03-18T19:21:32;100833.87;;;6.66;66.52
63654;BME280;49809;47.418;19.080;2023-03-18T19:24:40;100839.59;;;6.63;66.58
63654;BME280;49809;47.418;19.080;2023-03-18T19:27:43;100835.00;;;6.51;67.58
63654;BME280;49809;47.418;19.080;2023-03-18T19:30:46;100837.69;;;6.38;68.22
63654;BME280;49809;47.418;19.080;2023-03-18T19:33:50;100843.31;;;6.48;67.63
63654;BME280;49809;47.418;19.080;2023-03-18T19:36:56;100847.53;;;6.49;67.96
63654;BME280;49809;47.418;19.080;2023-03-18T19:40:17;100853.44;;;6.45;67.83
63654;BME280;49809;47.418;19.080;2023-03-18T19:43:21;100851.28;;;6.67;66.72
63654;BME280;49809;47.418;19.080;2023-03-18T19:49:35;100852.56;;;6.89;65.89
63654;BME280;49809;47.418;19.080;2023-03-18T19:52:44;100858.13;;;6.74;66.60
63654;BME280;49809;47.418;19.080;2023-03-18T19:55:48;100857.91;;;6.76;66.66
63654;BME280;49809;47.418;19.080;2023-03-18T19:58:53;100861.06;;;6.91;65.97
63654;BME280;49809;47.418;19.080;2023-03-18T20:01:59;100864.72;;;6.83;66.58
63654;BME280;49809;47.418;19.080;2023-03-18T20:05:15;100858.25;;;6.86;66.39
63654;BME280;49809;47.418;19.080;2023-03-18T20:08:22;100868.09;;;6.66;67.16
63654;BME280;49809;47.418;19.080;2023-03-18T20:11:32;100868.09;;;6.66;67.49
63654;BME280;49809;47.418;19.080;2023-03-18T20:14:43;100865.88;;;6.63;67.62
63654;BME280;49809;47.418;19.080;2023-03-18T20:17:50;100875.19;;;6.59;67.89
63654;BME280;49809;47.418;19.080;2023-03-18T20:20:53;100874.88;;;6.48;68.57
63654;BME280;49809;47.418;19.080;2023-03-18T20:24:06;100876.63;;;6.54;68.36
63654;BME280;49809;47.418;19.080;2023-03-18T20:27:12;100873.81;;;6.56;68.15
63654;BME280;49809;47.418;19.080;2023-03-18T20:30:22;100876.28;;;6.44;68.38
63654;BME280;49809;47.418;19.080;2023-03-18T20:33:29;100871.69;;;6.33;69.09
63654;BME280;49809;47.418;19.080;2023-03-18T20:37:03;100877.34;;;6.37;68.80
63654;BME280;49809;47.418;19.080;2023-03-18T20:40:28;100877.34;;;6.30;69.13
63654;BME280;49809;47.418;19.080;2023-03-18T20:43:33;100872.16;;;6.17;69.65
63654;BME280;49809;47.418;19.080;2023-03-18T20:46:36;100877.47;;;5.97;70.68
63654;BME280;49809;47.418;19.080;2023-03-18T20:49:40;100866.59;;;5.87;71.15
63654;BME280;49809;47.418;19.080;2023-03-18T20:53:29;100867.81;;;5.72;71.77
63654;BME280;49809;47.418;19.080;2023-03-18T20:56:32;100870.84;;;5.75;72.00
63654;BME280;49809;47.418;19.080;2023-03-18T20:59:37;100867.41;;;5.75;71.93